Time;durP1;ratioP1;P1;durP2;ratioP2;P2;SDS_P1;SDS_P2;PMS_P1;PMS_P2;Temp;Humidity;BMP_temperature;BMP_pressure;BME280_temperature;BME280_humidity;BME280_pressure;Samples;Min_cycle;Max_cycle;Signal;HPM_P1;HPM_P2
2021/12/17 00:02:55;;;;;;;;;;;23.10;57.40;;;;;;4939953;29;19910;-74
2021/12/17 00:07:21;;;;;;;;;;;23.10;57.40;;;;;;4956561;29;19910;-74
2021/12/17 00:09:50;;;;;;;;;;;23.10;57.40;;;;;;4956460;28;19961;-74
2021/12/17 00:12:17;;;;;;;;;;;23.10;57.50;;;;;;4939466;29;19965;-74
2021/12/17 00:14:46;;;;;;;;;;;23.10;57.40;;;;;;4956206;29;19934;-74
2021/12/17 00:17:16;;;;;;;;;;;23.00;57.10;;;;;;4939602;29;19957;-75
2021/12/17 00:20:04;;;;;;;;;;;23.00;56.20;;;;;;4956407;28;19925;-74
2021/12/17 00:50:01;;;;;;;;;;;23.00;54.70;;;;;;4960466;28;20409;-75
2021/12/17 00:52:32;;;;;;;;;;;23.00;54.70;;;;;;4956087;29;19965;-74
2021/12/17 00:54:58;;;;;;;;;;;23.00;54.90;;;;;;4972743;28;19921;-74
2021/12/17 00:57:28;;;;;;;;;;;23.00;55.00;;;;;;4957772;28;19914;-74
2021/12/17 00:59:54;;;;;;;;;;;23.00;55.70;;;;;;4973650;28;20377;-73
2021/12/17 01:02:22;;;;;;;;;;;23.00;55.30;;;;;;4938494;29;19911;-74
2021/12/17 01:04:50;;;;;;;;;;;23.00;55.30;;;;;;4938476;29;20387;-73
2021/12/17 01:07:18;;;;;;;;;;;23.00;55.40;;;;;;4938439;29;19910;-74
2021/12/17 01:09:45;;;;;;;;;;;23.00;55.50;;;;;;4938368;29;19943;-75
2021/12/17 01:12:12;;;;;;;;;;;23.00;55.50;;;;;;4970239;28;20427;-75
2021/12/17 01:14:56;;;;;;;;;;;23.00;55.60;;;;;;4955632;29;20040;-75
2021/12/17 01:17:48;;;;;;;;;;;23.00;55.60;;;;;;4938294;29;20371;-76
2021/12/17 01:40:48;;;;;;;;;;;23.00;56.40;;;;;;4923911;29;19918;-80
2021/12/17 01:42:53;;;;;;;;;;;22.90;56.20;;;;;;4918822;29;19923;-80
2021/12/17 01:45:19;;;;;;;;;;;22.50;50.80;;;;;;4903246;29;19910;-78
2021/12/17 01:47:45;;;;;;;;;;;22.30;46.40;;;;;;4918254;29;19911;-75
2021/12/17 01:56:15;;;;;;;;;;;22.50;50.60;;;;;;4874345;29;20005;-75
2021/12/17 01:59:41;;;;;;;;;;;22.50;51.00;;;;;;4915819;29;19912;-75
2021/12/17 02:01:36;;;;;;;;;;;22.60;50.60;;;;;;4906842;29;19911;-76
2021/12/17 02:04:05;;;;;;;;;;;22.60;50.60;;;;;;4915275;29;19921;-76
2021/12/17 02:06:34;;;;;;;;;;;22.70;50.90;;;;;;4904034;29;19918;-75
2021/12/17 02:09:01;;;;;;;;;;;22.70;51.00;;;;;;4918246;29;19961;-75
2021/12/17 02:12:01;;;;;;;;;;;22.70;51.90;;;;;;4930983;29;20384;-76
2021/12/17 02:20:22;;;;;;;;;;;22.80;51.80;;;;;;4934390;29;19915;-76
2021/12/17 02:23:10;;;;;;;;;;;22.80;51.80;;;;;;4916030;29;19914;-73
2021/12/17 02:31:07;;;;;;;;;;;22.60;50.20;;;;;;4935127;29;19911;-83
2021/12/17 02:33:33;;;;;;;;;;;22.50;51.30;;;;;;4933942;29;19918;-82
2021/12/17 02:36:00;;;;;;;;;;;22.60;50.70;;;;;;4933642;29;19915;-82
2021/12/17 02:38:28;;;;;;;;;;;22.60;48.70;;;;;;4933723;29;19953;-82
2021/12/17 02:46:56;;;;;;;;;;;22.70;50.30;;;;;;4933848;29;20291;-82
2021/12/17 02:49:22;;;;;;;;;;;22.70;50.50;;;;;;4933433;29;19910;-82
2021/12/17 02:51:49;;;;;;;;;;;22.70;50.60;;;;;;4933488;29;19911;-82
2021/12/17 02:54:15;;;;;;;;;;;22.70;51.00;;;;;;4945789;29;19914;-82
2021/12/17 02:56:41;;;;;;;;;;;22.70;51.00;;;;;;4952644;29;19910;-81
2021/12/17 02:59:10;;;;;;;;;;;22.70;51.10;;;;;;4936522;28;20013;-81
2021/12/17 03:01:36;;;;;;;;;;;22.70;51.20;;;;;;4953547;28;20367;-81
2021/12/17 03:04:01;;;;;;;;;;;22.70;51.40;;;;;;4936607;29;19934;-81
2021/12/17 03:06:27;;;;;;;;;;;22.70;51.40;;;;;;4953595;29;19919;-81
2021/12/17 03:08:53;;;;;;;;;;;22.80;51.60;;;;;;4953854;28;19916;-81
2021/12/17 03:11:20;;;;;;;;;;;22.80;51.60;;;;;;4936550;29;19910;-81
2021/12/17 03:13:48;;;;;;;;;;;22.80;51.70;;;;;;4953751;29;20379;-82
2021/12/17 03:16:39;;;;;;;;;;;22.80;51.90;;;;;;4920883;29;20418;-81
2021/12/17 03:24:10;;;;;;;;;;;22.90;52.70;;;;;;4952448;29;19914;-82
2021/12/17 03:26:36;;;;;;;;;;;22.80;52.40;;;;;;4955071;29;19970;-82
2021/12/17 03:29:06;;;;;;;;;;;22.80;52.60;;;;;;4953300;29;19925;-82
2021/12/17 03:31:32;;;;;;;;;;;22.80;52.70;;;;;;4935171;28;20003;-82
2021/12/17 03:34:17;;;;;;;;;;;22.90;52.80;;;;;;4933112;29;20450;-82
2021/12/17 03:36:48;;;;;;;;;;;22.80;53.10;;;;;;4936015;29;19910;-82
2021/12/17 03:39:15;;;;;;;;;;;22.80;53.00;;;;;;4919206;29;19950;-82
2021/12/17 03:41:47;;;;;;;;;;;22.80;53.10;;;;;;4934502;29;19965;-83
2021/12/17 03:44:14;;;;;;;;;;;22.80;53.20;;;;;;4933011;29;19931;-83
2021/12/17 03:47:03;;;;;;;;;;;22.80;53.30;;;;;;4917330;29;19910;-83
2021/12/17 03:49:48;;;;;;;;;;;22.80;53.30;;;;;;4917220;29;19918;-82
2021/12/17 03:52:16;;;;;;;;;;;22.80;53.90;;;;;;4934239;29;19915;-82
2021/12/17 03:54:42;;;;;;;;;;;22.80;53.50;;;;;;4916927;29;19911;-82
2021/12/17 03:57:11;;;;;;;;;;;22.80;53.50;;;;;;4917337;29;19982;-82
2021/12/17 03:59:42;;;;;;;;;;;22.80;53.50;;;;;;4932971;29;19911;-82
2021/12/17 04:02:08;;;;;;;;;;;22.80;53.50;;;;;;4932880;29;19921;-81
2021/12/17 04:04:35;;;;;;;;;;;22.80;53.60;;;;;;4932696;29;19953;-81
2021/12/17 04:07:19;;;;;;;;;;;22.80;53.60;;;;;;4919999;29;19918;-81
2021/12/17 04:10:05;;;;;;;;;;;22.80;53.60;;;;;;4933305;29;19911;-80
2021/12/17 04:12:46;;;;;;;;;;;22.80;53.60;;;;;;4935589;29;19911;-79
2021/12/17 04:15:14;;;;;;;;;;;22.80;53.60;;;;;;4936105;29;20005;-81
2021/12/17 04:17:47;;;;;;;;;;;22.80;53.60;;;;;;4936472;29;20375;-80
2021/12/17 04:20:13;;;;;;;;;;;22.80;53.60;;;;;;4936151;29;20004;-81
2021/12/17 04:22:39;;;;;;;;;;;22.80;53.50;;;;;;4920542;29;19985;-81
2021/12/17 04:25:05;;;;;;;;;;;22.80;53.60;;;;;;4935830;29;19910;-81
2021/12/17 04:27:31;;;;;;;;;;;22.80;53.60;;;;;;4920648;29;19987;-80
2021/12/17 04:30:00;;;;;;;;;;;22.80;53.60;;;;;;4920534;29;20375;-80
2021/12/17 04:32:26;;;;;;;;;;;22.80;53.60;;;;;;4904496;29;19911;-80
2021/12/17 04:34:51;;;;;;;;;;;22.80;53.70;;;;;;4919916;29;20260;-80
2021/12/17 04:37:21;;;;;;;;;;;22.80;53.60;;;;;;4919465;29;19945;-80
2021/12/17 04:39:55;;;;;;;;;;;22.70;53.60;;;;;;4920003;29;20359;-80
2021/12/17 04:42:34;;;;;;;;;;;22.70;53.70;;;;;;4919915;29;19910;-80
2021/12/17 04:45:04;;;;;;;;;;;22.80;53.80;;;;;;4919792;29;19911;-80
2021/12/17 04:58:34;;;;;;;;;;;22.70;53.90;;;;;;4920046;29;19921;-79
2021/12/17 05:01:08;;;;;;;;;;;22.70;53.90;;;;;;4903993;29;19998;-79
2021/12/17 05:03:33;;;;;;;;;;;22.70;53.90;;;;;;4919653;29;19931;-80
2021/12/17 05:06:00;;;;;;;;;;;22.70;53.90;;;;;;4919356;29;19914;-81
2021/12/17 05:08:34;;;;;;;;;;;22.70;53.90;;;;;;4919660;29;20029;-80
2021/12/17 05:19:14;;;;;;;;;;;22.70;54.00;;;;;;4903937;29;19973;-80
2021/12/17 05:21:39;;;;;;;;;;;22.70;54.00;;;;;;4919257;29;20497;-80
2021/12/17 05:24:07;;;;;;;;;;;22.80;54.00;;;;;;4903306;29;19914;-80
2021/12/17 05:26:33;;;;;;;;;;;22.80;53.90;;;;;;4919258;29;20339;-79
2021/12/17 05:28:59;;;;;;;;;;;22.70;53.80;;;;;;4919513;29;19917;-80
2021/12/17 05:31:30;;;;;;;;;;;22.70;53.90;;;;;;4902529;29;19918;-79
2021/12/17 05:33:59;;;;;;;;;;;22.70;53.90;;;;;;4900201;29;20400;-80
2021/12/17 05:36:32;;;;;;;;;;;22.70;53.90;;;;;;4900294;29;19911;-80
2021/12/17 05:39:11;;;;;;;;;;;22.70;53.90;;;;;;4900246;29;19911;-80
2021/12/17 05:41:38;;;;;;;;;;;22.70;54.00;;;;;;4884700;29;19966;-79
2021/12/17 05:44:41;;;;;;;;;;;22.70;54.10;;;;;;4909748;29;19922;-78
2021/12/17 05:47:07;;;;;;;;;;;22.70;54.00;;;;;;4900054;29;19918;-78
2021/12/17 05:49:33;;;;;;;;;;;22.70;54.00;;;;;;4884627;29;19915;-78
2021/12/17 05:52:02;;;;;;;;;;;22.70;54.10;;;;;;4899868;29;20558;-79
2021/12/17 05:54:29;;;;;;;;;;;22.70;54.10;;;;;;4899628;29;20277;-79
2021/12/17 05:56:55;;;;;;;;;;;22.70;54.10;;;;;;4900150;29;19915;-79
2021/12/17 05:59:24;;;;;;;;;;;22.70;54.00;;;;;;4899945;29;19918;-78
2021/12/17 06:01:50;;;;;;;;;;;22.70;54.10;;;;;;4899752;29;19962;-78
2021/12/17 06:04:17;;;;;;;;;;;22.70;54.00;;;;;;4899365;29;20344;-78
2021/12/17 06:06:53;;;;;;;;;;;22.70;54.20;;;;;;4884680;29;19911;-79
2021/12/17 06:09:19;;;;;;;;;;;22.70;54.10;;;;;;4899468;29;19911;-79
2021/12/17 06:11:45;;;;;;;;;;;22.70;54.10;;;;;;4884227;29;19918;-80
2021/12/17 06:14:15;;;;;;;;;;;22.70;54.10;;;;;;4899175;29;19951;-79
2021/12/17 06:16:41;;;;;;;;;;;22.70;54.20;;;;;;4899318;29;20006;-79
2021/12/17 06:19:12;;;;;;;;;;;22.70;54.10;;;;;;4884132;29;19915;-79
2021/12/17 06:21:38;;;;;;;;;;;22.70;54.20;;;;;;4899207;29;20055;-79
2021/12/17 06:24:05;;;;;;;;;;;22.70;54.10;;;;;;4899105;29;19915;-79
2021/12/17 06:26:33;;;;;;;;;;;22.70;54.00;;;;;;4883783;29;19911;-79
2021/12/17 06:29:00;;;;;;;;;;;22.70;54.10;;;;;;4899047;29;19918;-79
2021/12/17 06:31:27;;;;;;;;;;;22.70;54.00;;;;;;4899663;29;19915;-79
2021/12/17 06:33:55;;;;;;;;;;;22.70;53.90;;;;;;4917988;29;19914;-80
2021/12/17 06:36:21;;;;;;;;;;;22.70;53.90;;;;;;4917893;29;20005;-80
2021/12/17 06:38:47;;;;;;;;;;;22.80;54.00;;;;;;4917938;29;19971;-79
2021/12/17 06:41:14;;;;;;;;;;;22.70;54.10;;;;;;4917805;29;19922;-80
2021/12/17 06:43:43;;;;;;;;;;;22.70;54.00;;;;;;4917518;29;19966;-80
2021/12/17 06:48:39;;;;;;;;;;;22.70;54.00;;;;;;4902383;29;19998;-81
2021/12/17 06:59:53;;;;;;;;;;;22.70;54.00;;;;;;4934749;29;19915;-82
2021/12/17 07:06:08;;;;;;;;;;;22.70;54.10;;;;;;4917518;29;19911;-80
2021/12/17 07:17:14;;;;;;;;;;;22.70;54.10;;;;;;4901683;29;19925;-81
2021/12/17 07:33:33;;;;;;;;;;;22.70;54.00;;;;;;4935984;29;20009;-75
2021/12/17 07:36:14;;;;;;;;;;;22.80;54.00;;;;;;4935303;29;19910;-75
2021/12/17 07:38:48;;;;;;;;;;;22.70;54.10;;;;;;4936063;29;19910;-76
2021/12/17 07:41:32;;;;;;;;;;;22.70;54.00;;;;;;4938767;29;19911;-75
2021/12/17 07:44:09;;;;;;;;;;;22.70;54.00;;;;;;4935930;29;19914;-75
2021/12/17 07:46:48;;;;;;;;;;;22.70;54.10;;;;;;4922298;29;20001;-75
2021/12/17 07:49:14;;;;;;;;;;;22.70;54.10;;;;;;4957243;28;19945;-75
2021/12/17 07:51:40;;;;;;;;;;;22.70;54.00;;;;;;4924435;29;19958;-76
2021/12/17 07:54:14;;;;;;;;;;;22.70;54.10;;;;;;4923588;29;19920;-75
2021/12/17 07:56:40;;;;;;;;;;;22.70;54.10;;;;;;4923895;29;19993;-74
2021/12/17 07:59:19;;;;;;;;;;;22.70;54.10;;;;;;4957048;29;19918;-75
2021/12/17 08:01:46;;;;;;;;;;;22.70;54.00;;;;;;4940235;29;19921;-75
2021/12/17 08:04:12;;;;;;;;;;;22.70;54.00;;;;;;4940026;29;19997;-75
2021/12/17 08:07:04;;;;;;;;;;;22.70;54.00;;;;;;4955768;29;19915;-75
2021/12/17 08:09:34;;;;;;;;;;;22.70;54.00;;;;;;4940900;29;19915;-76
2021/12/17 08:12:01;;;;;;;;;;;22.70;54.00;;;;;;4945400;29;20188;-75
2021/12/17 08:14:36;;;;;;;;;;;22.70;54.20;;;;;;4944425;29;19969;-76
2021/12/17 08:25:27;;;;;;;;;;;22.70;54.00;;;;;;4939009;29;19986;-75
2021/12/17 08:28:04;;;;;;;;;;;22.70;54.20;;;;;;4923913;29;19910;-75
2021/12/17 08:30:38;;;;;;;;;;;22.70;54.20;;;;;;4929938;29;19915;-75
2021/12/17 08:33:09;;;;;;;;;;;22.70;54.10;;;;;;4920349;29;20065;-75
2021/12/17 08:35:36;;;;;;;;;;;22.70;54.00;;;;;;4903901;29;19917;-75
2021/12/17 08:38:10;;;;;;;;;;;22.70;54.10;;;;;;4920427;29;20045;-75
2021/12/17 08:40:37;;;;;;;;;;;22.70;54.20;;;;;;4919959;29;19946;-75
2021/12/17 08:43:04;;;;;;;;;;;22.70;54.00;;;;;;4919922;29;19921;-75
2021/12/17 08:45:36;;;;;;;;;;;22.70;54.30;;;;;;4919309;29;19910;-75
2021/12/17 08:48:31;;;;;;;;;;;22.70;54.30;;;;;;4907729;29;19911;-75
2021/12/17 08:51:26;;;;;;;;;;;22.70;54.20;;;;;;4868572;29;19918;-75
2021/12/17 08:53:52;;;;;;;;;;;22.70;54.10;;;;;;4936720;29;19911;-75
2021/12/17 08:56:22;;;;;;;;;;;22.70;54.00;;;;;;4919052;29;19917;-75
2021/12/17 08:58:52;;;;;;;;;;;22.70;54.00;;;;;;4918638;29;19910;-75
2021/12/17 09:01:21;;;;;;;;;;;22.70;54.20;;;;;;4919499;29;20402;-75
2021/12/17 09:03:47;;;;;;;;;;;22.70;54.00;;;;;;4919698;29;19914;-75
2021/12/17 09:06:28;;;;;;;;;;;22.70;54.10;;;;;;4903508;29;20319;-76
2021/12/17 09:08:56;;;;;;;;;;;22.70;54.20;;;;;;4903982;29;19985;-75
2021/12/17 09:11:26;;;;;;;;;;;22.70;54.10;;;;;;4903537;29;19957;-75
2021/12/17 09:13:56;;;;;;;;;;;22.70;54.20;;;;;;4920024;29;19911;-75
2021/12/17 09:16:27;;;;;;;;;;;22.70;54.10;;;;;;4918695;29;19954;-75
2021/12/17 09:18:54;;;;;;;;;;;22.70;54.10;;;;;;4919451;29;20343;-75
2021/12/17 09:21:27;;;;;;;;;;;22.70;54.10;;;;;;4919261;29;19918;-75
2021/12/17 09:24:05;;;;;;;;;;;22.70;54.00;;;;;;4919069;29;20291;-75
2021/12/17 09:26:52;;;;;;;;;;;22.70;54.00;;;;;;4936037;29;19911;-75
2021/12/17 09:29:21;;;;;;;;;;;22.70;54.10;;;;;;4919381;29;19993;-74
2021/12/17 09:31:47;;;;;;;;;;;22.70;54.20;;;;;;4938022;29;20005;-74
2021/12/17 09:34:13;;;;;;;;;;;22.70;57.00;;;;;;4954300;29;19914;-75
2021/12/17 09:36:39;;;;;;;;;;;22.70;58.20;;;;;;4954954;29;20311;-75
2021/12/17 09:39:04;;;;;;;;;;;22.70;57.30;;;;;;4938045;29;19911;-75
2021/12/17 09:41:30;;;;;;;;;;;22.70;56.90;;;;;;4937940;29;19960;-75
2021/12/17 09:43:56;;;;;;;;;;;22.80;56.80;;;;;;4953668;28;20394;-75
2021/12/17 09:46:22;;;;;;;;;;;22.70;56.90;;;;;;4954343;29;19910;-75
2021/12/17 09:48:50;;;;;;;;;;;22.80;57.00;;;;;;4953792;28;19937;-75
2021/12/17 09:51:17;;;;;;;;;;;22.70;57.00;;;;;;4938020;29;19910;-74
2021/12/17 09:53:43;;;;;;;;;;;22.70;56.60;;;;;;4955400;28;20379;-74
2021/12/17 09:56:09;;;;;;;;;;;22.70;56.80;;;;;;4953029;29;19921;-74
2021/12/17 09:58:34;;;;;;;;;;;22.70;57.00;;;;;;4939080;29;19910;-74
2021/12/17 10:01:00;;;;;;;;;;;22.70;57.10;;;;;;4956305;29;20363;-75
2021/12/17 10:03:26;;;;;;;;;;;22.80;57.00;;;;;;4937367;29;20315;-75
2021/12/17 10:05:52;;;;;;;;;;;22.70;57.00;;;;;;4945397;29;19946;-74
2021/12/17 10:08:19;;;;;;;;;;;22.70;57.40;;;;;;4918420;29;19957;-75
2021/12/17 10:10:46;;;;;;;;;;;22.70;57.50;;;;;;4935168;29;20466;-75
2021/12/17 10:13:19;;;;;;;;;;;22.70;57.20;;;;;;4918359;29;20029;-75
2021/12/17 10:15:47;;;;;;;;;;;22.70;57.30;;;;;;4934523;29;19911;-75
2021/12/17 10:18:13;;;;;;;;;;;22.70;57.40;;;;;;4935231;29;20383;-75
2021/12/17 10:20:58;;;;;;;;;;;22.80;57.30;;;;;;4943087;29;19911;-75
2021/12/17 10:23:25;;;;;;;;;;;22.70;57.30;;;;;;4954157;28;19922;-75
2021/12/17 10:25:51;;;;;;;;;;;22.80;57.40;;;;;;4953758;28;19910;-75
2021/12/17 10:28:17;;;;;;;;;;;22.70;57.40;;;;;;4953030;29;19910;-75
2021/12/17 10:30:44;;;;;;;;;;;22.80;57.70;;;;;;4943261;29;19970;-75
2021/12/17 10:33:13;;;;;;;;;;;22.70;57.60;;;;;;4917864;29;19978;-76
2021/12/17 10:35:43;;;;;;;;;;;22.80;57.90;;;;;;4901659;29;19953;-75
2021/12/17 10:38:12;;;;;;;;;;;22.70;57.60;;;;;;4902133;29;19910;-75
2021/12/17 10:40:50;;;;;;;;;;;22.80;58.00;;;;;;4934947;29;19993;-75
2021/12/17 10:46:06;;;;;;;;;;;22.70;57.90;;;;;;4932762;29;20363;-75
2021/12/17 10:49:21;;;;;;;;;;;22.80;57.90;;;;;;4918083;29;20307;-75
2021/12/17 10:51:31;;;;;;;;;;;22.70;58.20;;;;;;4924312;29;19964;-75
2021/12/17 10:54:17;;;;;;;;;;;22.80;58.00;;;;;;4934585;29;19910;-76
2021/12/17 10:56:47;;;;;;;;;;;22.70;58.30;;;;;;4934158;29;19910;-75
2021/12/17 10:59:20;;;;;;;;;;;22.80;58.50;;;;;;4939180;29;19910;-75
2021/12/17 11:01:52;;;;;;;;;;;22.80;58.60;;;;;;4953246;29;20451;-75
2021/12/17 11:04:21;;;;;;;;;;;22.80;58.60;;;;;;4935949;29;20386;-75
2021/12/17 11:06:48;;;;;;;;;;;22.80;58.60;;;;;;4928516;29;20009;-75
2021/12/17 11:09:34;;;;;;;;;;;22.80;58.50;;;;;;4943707;29;19919;-74
2021/12/17 11:12:02;;;;;;;;;;;22.80;58.70;;;;;;4933357;29;19910;-74
2021/12/17 11:14:28;;;;;;;;;;;22.80;58.80;;;;;;4933917;29;19954;-75
2021/12/17 11:16:54;;;;;;;;;;;22.80;58.90;;;;;;4935224;29;19910;-75
2021/12/17 11:19:20;;;;;;;;;;;22.80;58.90;;;;;;4923102;29;19911;-76
2021/12/17 11:21:46;;;;;;;;;;;22.90;58.70;;;;;;4916678;29;20013;-78
2021/12/17 11:24:12;;;;;;;;;;;22.70;56.40;;;;;;4933913;29;19925;-77
2021/12/17 11:26:40;;;;;;;;;;;22.40;51.70;;;;;;4917473;29;19918;-74
2021/12/17 11:29:05;;;;;;;;;;;22.20;46.50;;;;;;4940145;28;19915;-75
2021/12/17 11:31:32;;;;;;;;;;;22.20;49.00;;;;;;4950311;29;19910;-74
2021/12/17 11:33:59;;;;;;;;;;;22.30;53.20;;;;;;4953394;29;20239;-74
2021/12/17 11:36:24;;;;;;;;;;;22.40;53.20;;;;;;4948066;29;19910;-74
2021/12/17 11:39:05;;;;;;;;;;;22.50;53.50;;;;;;4952347;28;20360;-75
2021/12/17 11:41:33;;;;;;;;;;;22.50;54.50;;;;;;4935922;29;19917;-74
2021/12/17 11:44:00;;;;;;;;;;;22.60;53.60;;;;;;4946383;28;20275;-75
2021/12/17 11:46:28;;;;;;;;;;;22.60;54.50;;;;;;4935651;29;20197;-75
2021/12/17 11:48:55;;;;;;;;;;;22.70;52.40;;;;;;4917163;29;19915;-76
2021/12/17 11:51:26;;;;;;;;;;;22.60;53.00;;;;;;4949197;29;20462;-75
2021/12/17 11:53:52;;;;;;;;;;;22.60;53.20;;;;;;4917218;29;19917;-75
2021/12/17 11:56:30;;;;;;;;;;;22.60;53.20;;;;;;4922614;29;20319;-75
2021/12/17 11:58:55;;;;;;;;;;;22.60;52.10;;;;;;4929600;29;20391;-75
2021/12/17 12:01:40;;;;;;;;;;;22.60;52.00;;;;;;4942568;29;19942;-74
2021/12/17 12:04:22;;;;;;;;;;;22.60;51.80;;;;;;4952996;29;19941;-74
2021/12/17 12:07:01;;;;;;;;;;;22.60;51.80;;;;;;4952043;29;19921;-74
2021/12/17 12:09:45;;;;;;;;;;;22.60;51.80;;;;;;4933559;29;19917;-75
2021/12/17 12:12:11;;;;;;;;;;;22.60;50.90;;;;;;4953109;29;19918;-75
2021/12/17 12:14:36;;;;;;;;;;;22.70;54.40;;;;;;4952236;29;19910;-74
2021/12/17 12:17:02;;;;;;;;;;;22.70;54.80;;;;;;4935589;29;19996;-74
2021/12/17 12:19:47;;;;;;;;;;;22.70;57.60;;;;;;4953061;29;19957;-75
2021/12/17 12:22:13;;;;;;;;;;;22.80;54.80;;;;;;4952473;29;19918;-72
2021/12/17 12:24:39;;;;;;;;;;;22.80;55.90;;;;;;4952011;28;19970;-75
2021/12/17 12:27:05;;;;;;;;;;;22.70;55.60;;;;;;4935762;29;19914;-75
2021/12/17 12:29:30;;;;;;;;;;;22.80;55.30;;;;;;4951843;28;19914;-74
2021/12/17 12:31:58;;;;;;;;;;;22.80;55.80;;;;;;4952237;28;19917;-73
2021/12/17 12:34:34;;;;;;;;;;;22.70;54.80;;;;;;4930317;29;20439;-74
2021/12/17 12:37:06;;;;;;;;;;;22.70;54.80;;;;;;4953834;29;19938;-74
2021/12/17 12:39:38;;;;;;;;;;;22.70;54.70;;;;;;4956424;29;20386;-74
2021/12/17 12:42:17;;;;;;;;;;;22.70;55.00;;;;;;4947321;29;19921;-75
2021/12/17 12:44:42;;;;;;;;;;;22.70;54.20;;;;;;4940892;29;20418;-74
2021/12/17 12:47:09;;;;;;;;;;;22.70;54.00;;;;;;4956022;29;19910;-74
2021/12/17 12:49:41;;;;;;;;;;;22.70;53.50;;;;;;4939396;29;19911;-74
2021/12/17 12:52:20;;;;;;;;;;;22.60;53.90;;;;;;4942428;28;19918;-75
2021/12/17 12:54:50;;;;;;;;;;;22.60;52.60;;;;;;4957164;28;19910;-74
2021/12/17 12:57:25;;;;;;;;;;;22.60;53.10;;;;;;4958027;28;19946;-74
2021/12/17 12:59:55;;;;;;;;;;;22.60;51.60;;;;;;4975197;28;19933;-75
2021/12/17 13:02:21;;;;;;;;;;;22.60;51.70;;;;;;4961358;28;19961;-71
2021/12/17 13:04:46;;;;;;;;;;;22.60;52.60;;;;;;4954881;29;19914;-74
2021/12/17 13:07:15;;;;;;;;;;;22.60;51.70;;;;;;4955598;29;19975;-75
2021/12/17 13:09:42;;;;;;;;;;;22.60;51.60;;;;;;4956179;28;19911;-75
2021/12/17 13:12:08;;;;;;;;;;;22.60;52.10;;;;;;4955391;29;19997;-76
2021/12/17 13:14:41;;;;;;;;;;;22.60;52.10;;;;;;4954867;29;20017;-75
2021/12/17 13:17:29;;;;;;;;;;;22.60;51.70;;;;;;4955525;29;20363;-76
2021/12/17 13:22:54;;;;;;;;;;;22.60;51.70;;;;;;4967239;23;19985;-92
2021/12/17 13:25:27;;;;;;;;;;;22.60;52.00;;;;;;4926762;29;19993;-91
2021/12/17 13:28:04;;;;;;;;;;;;;;;;;;;;;
2021/12/17 13:30:33;;;;;;;;;;;22.60;52.30;;;;;;4906034;29;19910;-91
2021/12/17 13:36:15;;;;;;;;;;;22.60;52.50;;;;;;5091979;23;19921;-90
2021/12/17 13:38:57;;;;;;;;;;;22.60;52.50;;;;;;4996237;28;19913;-90
2021/12/17 13:42:01;;;;;;;;;;;22.60;52.60;;;;;;4965480;28;19910;-89
2021/12/17 13:44:33;;;;;;;;;;;22.60;52.70;;;;;;4912702;28;19914;-90
2021/12/17 13:47:33;;;;;;;;;;;22.60;52.80;;;;;;4962207;28;19910;-92
2021/12/17 13:50:34;;;;;;;;;;;22.60;52.80;;;;;;4935011;28;19914;-91
2021/12/17 13:53:02;;;;;;;;;;;22.70;52.90;;;;;;4944181;28;20500;-89
2021/12/17 13:55:44;;;;;;;;;;;;;;;;;;;;;
2021/12/17 13:58:28;;;;;;;;;;;22.60;53.00;;;;;;4960695;28;19910;-92
2021/12/17 14:01:02;;;;;;;;;;;22.60;53.00;;;;;;4946892;28;19998;-92
2021/12/17 14:06:53;;;;;;;;;;;22.60;53.20;;;;;;4947803;29;19914;-90
2021/12/17 14:09:27;;;;;;;;;;;22.70;53.30;;;;;;4938900;28;19909;-89
2021/12/17 14:12:06;;;;;;;;;;;22.60;53.30;;;;;;4954593;28;19910;-90
2021/12/17 14:14:42;;;;;;;;;;;22.60;53.30;;;;;;4936814;28;19910;-87
2021/12/17 14:26:28;;;;;;;;;;;;;;;;;;;;;
2021/12/17 14:29:30;;;;;;;;;;;;;;;;;;;;;
2021/12/17 14:32:16;;;;;;;;;;;22.60;53.40;;;;;;4899114;28;19915;-87
2021/12/17 14:38:50;;;;;;;;;;;22.60;53.40;;;;;;4966071;28;19914;-90
2021/12/17 14:41:45;;;;;;;;;;;22.60;53.40;;;;;;4935792;28;19982;-90
2021/12/17 14:44:55;;;;;;;;;;;22.70;53.60;;;;;;4951624;28;20279;-88
2021/12/17 15:03:40;;;;;;;;;;;22.60;53.70;;;;;;4968787;28;19921;-91
2021/12/17 15:06:23;;;;;;;;;;;22.60;53.90;;;;;;4949867;28;20436;-89
2021/12/17 15:08:54;;;;;;;;;;;22.60;53.90;;;;;;4950781;28;19945;-86
2021/12/17 15:11:31;;;;;;;;;;;22.60;53.80;;;;;;4934100;28;19938;-89
2021/12/17 15:14:08;;;;;;;;;;;22.60;53.90;;;;;;4949709;28;19910;-90
2021/12/17 15:17:05;;;;;;;;;;;22.60;53.90;;;;;;4964100;28;19968;-86
2021/12/17 15:23:45;;;;;;;;;;;22.60;53.70;;;;;;4859465;29;19916;-80
2021/12/17 15:26:35;;;;;;;;;;;22.60;53.70;;;;;;4882029;29;20006;-80
2021/12/17 15:32:32;;;;;;;;;;;22.60;53.30;;;;;;4912005;29;19910;-82
2021/12/17 15:35:01;;;;;;;;;;;22.70;53.50;;;;;;4927002;29;19914;-80
2021/12/17 15:37:33;;;;;;;;;;;22.70;53.60;;;;;;4921876;29;19922;-79
2021/12/17 15:39:58;;;;;;;;;;;22.70;53.90;;;;;;4936994;29;19914;-78
2021/12/17 15:42:24;;;;;;;;;;;22.80;54.50;;;;;;4936825;29;19953;-79
2021/12/17 15:44:50;;;;;;;;;;;22.80;53.80;;;;;;4953542;28;19921;-79
2021/12/17 15:47:15;;;;;;;;;;;22.80;54.40;;;;;;4925668;29;19952;-79
2021/12/17 15:49:41;;;;;;;;;;;22.90;56.50;;;;;;4940349;29;19910;-80
2021/12/17 15:52:07;;;;;;;;;;;22.90;56.60;;;;;;4911456;29;19911;-79
2021/12/17 15:54:34;;;;;;;;;;;22.90;55.70;;;;;;4929918;29;19914;-78
2021/12/17 15:57:00;;;;;;;;;;;22.90;56.70;;;;;;4930453;29;19910;-80
2021/12/17 15:59:28;;;;;;;;;;;22.90;55.10;;;;;;4927017;29;19910;-80
2021/12/17 16:01:54;;;;;;;;;;;22.90;57.10;;;;;;4914878;29;19910;-80
2021/12/17 16:04:27;;;;;;;;;;;22.90;57.20;;;;;;4944899;29;19961;-80
2021/12/17 16:07:05;;;;;;;;;;;22.90;54.60;;;;;;4929872;29;19911;-78
2021/12/17 16:28:46;;;;;;;;;;;;;;;;;;;;;
2021/12/17 16:36:32;;;;;;;;;;;;;;;;;;;;;
2021/12/17 16:38:50;;;;;;;;;;;22.90;56.20;;;;;;4769957;30;19922;-79
2021/12/17 16:41:20;;;;;;;;;;;22.90;56.10;;;;;;4838106;29;20003;-81
2021/12/17 16:43:46;;;;;;;;;;;22.90;56.50;;;;;;4916658;29;19915;-79
2021/12/17 16:53:01;;;;;;;;;;;22.80;55.10;;;;;;4982439;28;19924;-78
2021/12/17 17:04:03;;;;;;;;;;;22.90;54.70;;;;;;4876360;29;20309;-77
2021/12/17 17:10:28;;;;;;;;;;;22.80;55.00;;;;;;4855994;29;19912;-82
2021/12/17 17:16:29;;;;;;;;;;;22.80;55.00;;;;;;5146791;23;19923;-83
2021/12/17 17:19:14;;;;;;;;;;;22.80;55.10;;;;;;4938879;28;19914;-81
2021/12/17 17:22:07;;;;;;;;;;;22.80;55.20;;;;;;4934788;29;19910;-83
2021/12/17 17:28:49;;;;;;;;;;;22.80;55.30;;;;;;4933241;29;19929;-80
2021/12/17 17:31:18;;;;;;;;;;;22.80;55.30;;;;;;4939043;29;20212;-80
2021/12/17 17:33:48;;;;;;;;;;;22.80;55.30;;;;;;4962682;28;19918;-79
2021/12/17 17:36:21;;;;;;;;;;;22.80;55.40;;;;;;4937512;28;19933;-78
2021/12/17 17:38:59;;;;;;;;;;;22.80;55.40;;;;;;4923529;29;19911;-79
2021/12/17 17:41:28;;;;;;;;;;;22.80;55.40;;;;;;4944612;28;20367;-80
2021/12/17 17:43:55;;;;;;;;;;;22.80;55.60;;;;;;4968518;28;19915;-80
2021/12/17 17:46:21;;;;;;;;;;;22.80;55.60;;;;;;4937995;29;19921;-80
2021/12/17 17:48:47;;;;;;;;;;;22.80;55.90;;;;;;4956087;28;19911;-81
2021/12/17 17:51:13;;;;;;;;;;;22.90;55.90;;;;;;4928389;29;20285;-80
2021/12/17 17:57:04;;;;;;;;;;;22.90;55.90;;;;;;5192980;23;19922;-77
2021/12/17 17:59:50;;;;;;;;;;;22.90;55.80;;;;;;4953796;28;19910;-77
2021/12/17 18:02:16;;;;;;;;;;;23.00;56.40;;;;;;4958505;28;19922;-79
2021/12/17 18:04:42;;;;;;;;;;;22.90;56.20;;;;;;4925779;29;19914;-81
2021/12/17 18:07:10;;;;;;;;;;;22.90;56.10;;;;;;5376496;23;19928;-81
2021/12/17 18:09:37;;;;;;;;;;;22.90;56.30;;;;;;4961117;28;20274;-81
2021/12/17 18:12:04;;;;;;;;;;;22.90;56.70;;;;;;4971047;28;19910;-81
2021/12/17 18:14:33;;;;;;;;;;;22.90;56.90;;;;;;4939989;29;19911;-80
2021/12/17 18:16:59;;;;;;;;;;;22.80;57.30;;;;;;4938176;29;19921;-81
2021/12/17 18:19:27;;;;;;;;;;;22.80;57.50;;;;;;4942090;28;19914;-81
2021/12/17 18:21:53;;;;;;;;;;;22.70;57.20;;;;;;4987615;23;19950;-76
2021/12/17 18:24:19;;;;;;;;;;;22.80;57.80;;;;;;4939485;28;19957;-76
2021/12/17 18:26:44;;;;;;;;;;;22.80;57.80;;;;;;4972360;28;20298;-76
2021/12/17 18:29:10;;;;;;;;;;;22.70;58.30;;;;;;4954146;29;19914;-74
2021/12/17 18:31:36;;;;;;;;;;;22.70;58.30;;;;;;4961455;28;19910;-76
2021/12/17 18:34:01;;;;;;;;;;;22.70;59.30;;;;;;4957232;28;20318;-76
2021/12/17 18:36:27;;;;;;;;;;;22.70;58.40;;;;;;4956990;28;19910;-76
2021/12/17 18:38:53;;;;;;;;;;;22.70;58.70;;;;;;4973283;28;19914;-76
2021/12/17 18:41:25;;;;;;;;;;;22.70;58.60;;;;;;4972871;28;19949;-76
2021/12/17 18:44:05;;;;;;;;;;;22.70;58.10;;;;;;4973303;28;19917;-73
2021/12/17 18:46:32;;;;;;;;;;;22.70;58.30;;;;;;4956153;28;19917;-76
2021/12/17 18:48:58;;;;;;;;;;;22.70;55.70;;;;;;4968401;28;19917;-74
2021/12/17 18:51:23;;;;;;;;;;;22.70;54.50;;;;;;4954152;29;19910;-74
2021/12/17 18:53:49;;;;;;;;;;;22.70;55.80;;;;;;4953753;28;20037;-75
2021/12/17 18:56:17;;;;;;;;;;;22.70;56.00;;;;;;4920690;29;19914;-73